sensor_id;sensor_type;location;lat;lon;timestamp;P1;durP1;ratioP1;P2;durP2;ratioP2
33862;SDS011;20158;51.436;-2.742;2022-09-21T00:00:39;4.78;;;4.28;;
33862;SDS011;20158;51.436;-2.742;2022-09-21T00:03:05;5.20;;;4.25;;
33862;SDS011;20158;51.436;-2.742;2022-09-21T00:05:32;4.55;;;4.15;;
33862;SDS011;20158;51.436;-2.742;2022-09-21T00:08:03;4.55;;;4.05;;
33862;SDS011;20158;51.436;-2.742;2022-09-21T00:10:31;5.47;;;4.88;;
33862;SDS011;20158;51.436;-2.742;2022-09-21T00:12:58;8.50;;;4.82;;
33862;SDS011;20158;51.436;-2.742;2022-09-21T00:15:26;5.95;;;4.47;;
33862;SDS011;20158;51.436;-2.742;2022-09-21T00:17:52;4.18;;;3.78;;
33862;SDS011;20158;51.436;-2.742;2022-09-21T00:20:19;4.32;;;3.92;;
33862;SDS011;20158;51.436;-2.742;2022-09-21T00:22:46;4.13;;;3.67;;
33862;SDS011;20158;51.436;-2.742;2022-09-21T00:25:12;4.63;;;4.18;;
33862;SDS011;20158;51.436;-2.742;2022-09-21T00:27:39;5.32;;;4.28;;
33862;SDS011;20158;51.436;-2.742;2022-09-21T00:30:08;4.30;;;3.85;;
33862;SDS011;20158;51.436;-2.742;2022-09-21T00:32:36;4.93;;;3.95;;
33862;SDS011;20158;51.436;-2.742;2022-09-21T00:35:04;5.15;;;4.65;;
33862;SDS011;20158;51.436;-2.742;2022-09-21T00:37:32;6.47;;;4.10;;
33862;SDS011;20158;51.436;-2.742;2022-09-21T00:40:00;6.10;;;5.07;;
33862;SDS011;20158;51.436;-2.742;2022-09-21T00:42:28;5.55;;;4.47;;
33862;SDS011;20158;51.436;-2.742;2022-09-21T00:44:58;4.80;;;4.05;;
33862;SDS011;20158;51.436;-2.742;2022-09-21T00:47:41;4.35;;;3.95;;
33862;SDS011;20158;51.436;-2.742;2022-09-21T00:50:11;4.95;;;4.45;;
33862;SDS011;20158;51.436;-2.742;2022-09-21T00:52:41;4.30;;;3.65;;
33862;SDS011;20158;51.436;-2.742;2022-09-21T00:55:15;4.65;;;4.05;;
33862;SDS011;20158;51.436;-2.742;2022-09-21T00:57:51;5.18;;;3.97;;
33862;SDS011;20158;51.436;-2.742;2022-09-21T01:00:21;4.35;;;3.95;;
33862;SDS011;20158;51.436;-2.742;2022-09-21T01:02:47;5.38;;;4.30;;
33862;SDS011;20158;51.436;-2.742;2022-09-21T01:05:13;5.32;;;4.28;;
33862;SDS011;20158;51.436;-2.742;2022-09-21T01:07:40;4.40;;;4.00;;
33862;SDS011;20158;51.436;-2.742;2022-09-21T01:10:11;4.05;;;3.65;;
33862;SDS011;20158;51.436;-2.742;2022-09-21T01:29:19;4.90;;;4.10;;
33862;SDS011;20158;51.436;-2.742;2022-09-21T01:31:50;4.80;;;4.40;;
33862;SDS011;20158;51.436;-2.742;2022-09-21T01:34:28;5.32;;;4.03;;
33862;SDS011;20158;51.436;-2.742;2022-09-21T01:37:06;6.15;;;4.75;;
33862;SDS011;20158;51.436;-2.742;2022-09-21T01:39:36;7.28;;;4.70;;
33862;SDS011;20158;51.436;-2.742;2022-09-21T01:42:07;4.90;;;4.13;;
33862;SDS011;20158;51.436;-2.742;2022-09-21T01:44:36;5.13;;;4.63;;
33862;SDS011;20158;51.436;-2.742;2022-09-21T01:47:06;5.32;;;4.65;;
33862;SDS011;20158;51.436;-2.742;2022-09-21T01:49:35;5.65;;;4.20;;
33862;SDS011;20158;51.436;-2.742;2022-09-21T01:52:05;4.47;;;4.07;;
33862;SDS011;20158;51.436;-2.742;2022-09-21T01:54:38;4.45;;;4.05;;
33862;SDS011;20158;51.436;-2.742;2022-09-21T01:57:15;4.57;;;3.83;;
33862;SDS011;20158;51.436;-2.742;2022-09-21T01:59:54;4.65;;;4.20;;
33862;SDS011;20158;51.436;-2.742;2022-09-21T02:05:00;5.70;;;3.97;;
33862;SDS011;20158;51.436;-2.742;2022-09-21T02:07:27;5.10;;;4.60;;
33862;SDS011;20158;51.436;-2.742;2022-09-21T02:09:53;5.03;;;4.45;;
33862;SDS011;20158;51.436;-2.742;2022-09-21T02:12:20;4.45;;;3.83;;
33862;SDS011;20158;51.436;-2.742;2022-09-21T02:14:47;5.15;;;4.22;;
33862;SDS011;20158;51.436;-2.742;2022-09-21T02:19:52;4.80;;;4.22;;
33862;SDS011;20158;51.436;-2.742;2022-09-21T02:22:32;5.13;;;4.63;;
33862;SDS011;20158;51.436;-2.742;2022-09-21T02:25:20;5.43;;;4.93;;
33862;SDS011;20158;51.436;-2.742;2022-09-21T02:27:57;4.93;;;4.38;;
33862;SDS011;20158;51.436;-2.742;2022-09-21T02:30:31;4.70;;;4.30;;
33862;SDS011;20158;51.436;-2.742;2022-09-21T02:43:36;5.77;;;5.17;;
33862;SDS011;20158;51.436;-2.742;2022-09-21T02:46:12;6.63;;;4.90;;
33862;SDS011;20158;51.436;-2.742;2022-09-21T02:48:46;5.00;;;4.50;;
33862;SDS011;20158;51.436;-2.742;2022-09-21T02:51:18;5.07;;;4.57;;
33862;SDS011;20158;51.436;-2.742;2022-09-21T02:54:07;5.05;;;4.55;;
33862;SDS011;20158;51.436;-2.742;2022-09-21T02:56:36;5.30;;;4.80;;
33862;SDS011;20158;51.436;-2.742;2022-09-21T02:59:03;5.00;;;4.50;;
33862;SDS011;20158;51.436;-2.742;2022-09-21T03:01:30;5.40;;;4.90;;
33862;SDS011;20158;51.436;-2.742;2022-09-21T03:03:58;5.28;;;4.63;;
33862;SDS011;20158;51.436;-2.742;2022-09-21T03:06:25;6.05;;;5.45;;
33862;SDS011;20158;51.436;-2.742;2022-09-21T03:08:51;5.75;;;4.85;;
33862;SDS011;20158;51.436;-2.742;2022-09-21T03:11:17;5.05;;;4.40;;
33862;SDS011;20158;51.436;-2.742;2022-09-21T03:13:44;6.95;;;5.70;;
33862;SDS011;20158;51.436;-2.742;2022-09-21T03:16:10;5.25;;;4.75;;
33862;SDS011;20158;51.436;-2.742;2022-09-21T03:18:38;6.53;;;5.07;;
33862;SDS011;20158;51.436;-2.742;2022-09-21T03:21:06;5.40;;;4.68;;
33862;SDS011;20158;51.436;-2.742;2022-09-21T03:23:32;5.82;;;4.90;;
33862;SDS011;20158;51.436;-2.742;2022-09-21T03:25:58;5.30;;;4.80;;
33862;SDS011;20158;51.436;-2.742;2022-09-21T03:28:25;5.40;;;4.90;;
33862;SDS011;20158;51.436;-2.742;2022-09-21T03:30:51;5.78;;;5.15;;
33862;SDS011;20158;51.436;-2.742;2022-09-21T03:33:18;5.35;;;4.85;;
33862;SDS011;20158;51.436;-2.742;2022-09-21T03:35:48;5.03;;;4.63;;
33862;SDS011;20158;51.436;-2.742;2022-09-21T03:38:17;5.47;;;4.93;;
33862;SDS011;20158;51.436;-2.742;2022-09-21T03:40:44;5.90;;;5.15;;
33862;SDS011;20158;51.436;-2.742;2022-09-21T03:43:12;5.18;;;4.68;;
33862;SDS011;20158;51.436;-2.742;2022-09-21T03:45:43;6.57;;;5.93;;
33862;SDS011;20158;51.436;-2.742;2022-09-21T03:48:10;5.75;;;5.13;;
33862;SDS011;20158;51.436;-2.742;2022-09-21T03:50:37;6.35;;;4.85;;
33862;SDS011;20158;51.436;-2.742;2022-09-21T03:53:03;5.68;;;5.07;;
33862;SDS011;20158;51.436;-2.742;2022-09-21T03:55:29;5.85;;;5.25;;
33862;SDS011;20158;51.436;-2.742;2022-09-21T03:57:55;5.45;;;4.85;;
33862;SDS011;20158;51.436;-2.742;2022-09-21T04:00:22;5.90;;;5.40;;
33862;SDS011;20158;51.436;-2.742;2022-09-21T04:02:48;5.70;;;5.15;;
33862;SDS011;20158;51.436;-2.742;2022-09-21T04:05:14;6.45;;;5.78;;
33862;SDS011;20158;51.436;-2.742;2022-09-21T04:07:41;6.45;;;4.88;;
33862;SDS011;20158;51.436;-2.742;2022-09-21T04:10:12;5.28;;;4.78;;
33862;SDS011;20158;51.436;-2.742;2022-09-21T04:12:40;5.65;;;4.82;;
33862;SDS011;20158;51.436;-2.742;2022-09-21T04:15:08;5.07;;;4.35;;
33862;SDS011;20158;51.436;-2.742;2022-09-21T04:17:37;4.90;;;4.43;;
33862;SDS011;20158;51.436;-2.742;2022-09-21T04:20:04;5.93;;;5.32;;
33862;SDS011;20158;51.436;-2.742;2022-09-21T04:22:31;5.40;;;4.60;;
33862;SDS011;20158;51.436;-2.742;2022-09-21T04:24:57;5.82;;;4.88;;
33862;SDS011;20158;51.436;-2.742;2022-09-21T04:27:23;6.63;;;5.75;;
33862;SDS011;20158;51.436;-2.742;2022-09-21T04:29:49;5.22;;;4.72;;
33862;SDS011;20158;51.436;-2.742;2022-09-21T04:32:17;4.57;;;4.18;;
33862;SDS011;20158;51.436;-2.742;2022-09-21T04:34:43;7.57;;;4.80;;
33862;SDS011;20158;51.436;-2.742;2022-09-21T04:37:10;5.43;;;4.93;;
33862;SDS011;20158;51.436;-2.742;2022-09-21T04:39:36;5.57;;;5.07;;
33862;SDS011;20158;51.436;-2.742;2022-09-21T04:42:03;4.68;;;4.18;;
33862;SDS011;20158;51.436;-2.742;2022-09-21T04:44:30;5.03;;;4.53;;
33862;SDS011;20158;51.436;-2.742;2022-09-21T04:46:56;5.68;;;4.82;;
33862;SDS011;20158;51.436;-2.742;2022-09-21T04:49:22;5.30;;;4.80;;
33862;SDS011;20158;51.436;-2.742;2022-09-21T04:51:48;5.22;;;4.75;;
33862;SDS011;20158;51.436;-2.742;2022-09-21T04:54:14;5.03;;;4.53;;
33862;SDS011;20158;51.436;-2.742;2022-09-21T04:56:40;4.65;;;4.22;;
33862;SDS011;20158;51.436;-2.742;2022-09-21T04:59:06;4.25;;;3.85;;
33862;SDS011;20158;51.436;-2.742;2022-09-21T05:01:32;5.70;;;5.10;;
33862;SDS011;20158;51.436;-2.742;2022-09-21T05:03:58;5.13;;;4.15;;
33862;SDS011;20158;51.436;-2.742;2022-09-21T05:06:27;4.97;;;4.28;;
33862;SDS011;20158;51.436;-2.742;2022-09-21T05:08:54;5.35;;;4.15;;
33862;SDS011;20158;51.436;-2.742;2022-09-21T05:11:39;4.18;;;3.78;;
33862;SDS011;20158;51.436;-2.742;2022-09-21T05:14:05;3.60;;;3.30;;
33862;SDS011;20158;51.436;-2.742;2022-09-21T05:16:32;3.83;;;3.53;;
33862;SDS011;20158;51.436;-2.742;2022-09-21T05:18:58;4.43;;;3.53;;
33862;SDS011;20158;51.436;-2.742;2022-09-21T05:21:24;3.50;;;3.20;;
33862;SDS011;20158;51.436;-2.742;2022-09-21T05:23:51;3.90;;;3.60;;
33862;SDS011;20158;51.436;-2.742;2022-09-21T05:26:18;4.05;;;3.10;;
33862;SDS011;20158;51.436;-2.742;2022-09-21T05:28:45;3.78;;;3.28;;
33862;SDS011;20158;51.436;-2.742;2022-09-21T05:39:28;5.80;;;3.17;;
33862;SDS011;20158;51.436;-2.742;2022-09-21T05:41:56;3.83;;;3.50;;
33862;SDS011;20158;51.436;-2.742;2022-09-21T05:44:22;4.15;;;3.78;;
33862;SDS011;20158;51.436;-2.742;2022-09-21T05:49:24;3.72;;;3.25;;
33862;SDS011;20158;51.436;-2.742;2022-09-21T06:00:20;4.57;;;4.13;;
33862;SDS011;20158;51.436;-2.742;2022-09-21T06:03:03;5.85;;;5.15;;
33862;SDS011;20158;51.436;-2.742;2022-09-21T06:05:52;4.47;;;4.07;;
33862;SDS011;20158;51.436;-2.742;2022-09-21T06:08:18;6.28;;;4.70;;
33862;SDS011;20158;51.436;-2.742;2022-09-21T06:10:44;4.30;;;3.90;;
33862;SDS011;20158;51.436;-2.742;2022-09-21T06:13:10;4.90;;;4.38;;
33862;SDS011;20158;51.436;-2.742;2022-09-21T06:15:36;4.40;;;4.00;;
33862;SDS011;20158;51.436;-2.742;2022-09-21T06:18:05;4.60;;;4.20;;
33862;SDS011;20158;51.436;-2.742;2022-09-21T06:20:32;4.38;;;3.85;;
33862;SDS011;20158;51.436;-2.742;2022-09-21T06:23:04;4.20;;;3.80;;
33862;SDS011;20158;51.436;-2.742;2022-09-21T06:25:35;4.43;;;3.92;;
33862;SDS011;20158;51.436;-2.742;2022-09-21T06:28:05;4.45;;;4.05;;
33862;SDS011;20158;51.436;-2.742;2022-09-21T06:30:34;5.18;;;3.50;;
33862;SDS011;20158;51.436;-2.742;2022-09-21T06:33:02;5.78;;;3.88;;
33862;SDS011;20158;51.436;-2.742;2022-09-21T06:35:29;4.63;;;4.22;;
33862;SDS011;20158;51.436;-2.742;2022-09-21T06:37:57;5.40;;;4.47;;
33862;SDS011;20158;51.436;-2.742;2022-09-21T06:40:27;4.82;;;4.25;;
33862;SDS011;20158;51.436;-2.742;2022-09-21T06:42:54;5.88;;;5.28;;
33862;SDS011;20158;51.436;-2.742;2022-09-21T06:45:25;5.18;;;4.43;;
33862;SDS011;20158;51.436;-2.742;2022-09-21T06:47:52;4.55;;;4.15;;
33862;SDS011;20158;51.436;-2.742;2022-09-21T06:50:18;5.28;;;4.78;;
33862;SDS011;20158;51.436;-2.742;2022-09-21T06:52:44;5.90;;;4.88;;
33862;SDS011;20158;51.436;-2.742;2022-09-21T06:55:11;6.88;;;4.70;;
33862;SDS011;20158;51.436;-2.742;2022-09-21T06:57:37;5.72;;;4.78;;
33862;SDS011;20158;51.436;-2.742;2022-09-21T07:00:04;5.78;;;4.65;;
33862;SDS011;20158;51.436;-2.742;2022-09-21T07:02:32;5.68;;;5.18;;
33862;SDS011;20158;51.436;-2.742;2022-09-21T07:04:59;6.03;;;5.43;;
33862;SDS011;20158;51.436;-2.742;2022-09-21T07:07:26;6.97;;;4.90;;
33862;SDS011;20158;51.436;-2.742;2022-09-21T07:09:56;6.22;;;5.63;;
33862;SDS011;20158;51.436;-2.742;2022-09-21T07:12:27;7.30;;;5.55;;
33862;SDS011;20158;51.436;-2.742;2022-09-21T07:14:54;7.35;;;6.65;;
33862;SDS011;20158;51.436;-2.742;2022-09-21T07:17:20;8.18;;;5.85;;
33862;SDS011;20158;51.436;-2.742;2022-09-21T07:19:46;6.55;;;5.95;;
33862;SDS011;20158;51.436;-2.742;2022-09-21T07:22:13;6.40;;;5.80;;
33862;SDS011;20158;51.436;-2.742;2022-09-21T07:24:38;6.47;;;5.80;;
33862;SDS011;20158;51.436;-2.742;2022-09-21T07:27:04;6.15;;;5.63;;
33862;SDS011;20158;51.436;-2.742;2022-09-21T07:29:31;6.60;;;5.95;;
33862;SDS011;20158;51.436;-2.742;2022-09-21T07:31:56;7.13;;;5.97;;
33862;SDS011;20158;51.436;-2.742;2022-09-21T07:34:22;6.53;;;5.93;;
33862;SDS011;20158;51.436;-2.742;2022-09-21T07:36:48;6.63;;;5.68;;
33862;SDS011;20158;51.436;-2.742;2022-09-21T07:39:14;7.45;;;6.28;;
33862;SDS011;20158;51.436;-2.742;2022-09-21T07:41:40;8.52;;;6.35;;
33862;SDS011;20158;51.436;-2.742;2022-09-21T07:44:07;7.53;;;5.93;;
33862;SDS011;20158;51.436;-2.742;2022-09-21T07:46:33;7.13;;;5.88;;
33862;SDS011;20158;51.436;-2.742;2022-09-21T07:49:01;8.13;;;6.68;;
33862;SDS011;20158;51.436;-2.742;2022-09-21T07:51:29;6.45;;;5.85;;
33862;SDS011;20158;51.436;-2.742;2022-09-21T07:53:56;6.75;;;5.85;;
33862;SDS011;20158;51.436;-2.742;2022-09-21T07:56:22;7.13;;;5.90;;
33862;SDS011;20158;51.436;-2.742;2022-09-21T07:58:48;7.38;;;6.03;;
33862;SDS011;20158;51.436;-2.742;2022-09-21T08:03:59;7.45;;;6.65;;
33862;SDS011;20158;51.436;-2.742;2022-09-21T08:06:26;7.43;;;6.15;;
33862;SDS011;20158;51.436;-2.742;2022-09-21T08:08:54;10.88;;;6.40;;
33862;SDS011;20158;51.436;-2.742;2022-09-21T08:11:22;8.05;;;7.28;;
33862;SDS011;20158;51.436;-2.742;2022-09-21T08:13:50;7.50;;;6.65;;
33862;SDS011;20158;51.436;-2.742;2022-09-21T08:16:17;8.80;;;7.18;;
33862;SDS011;20158;51.436;-2.742;2022-09-21T08:18:43;8.32;;;6.97;;
33862;SDS011;20158;51.436;-2.742;2022-09-21T08:21:10;9.38;;;7.55;;
33862;SDS011;20158;51.436;-2.742;2022-09-21T08:23:37;7.18;;;6.53;;
33862;SDS011;20158;51.436;-2.742;2022-09-21T08:26:07;8.38;;;7.50;;
33862;SDS011;20158;51.436;-2.742;2022-09-21T08:28:36;8.75;;;6.88;;
33862;SDS011;20158;51.436;-2.742;2022-09-21T08:31:05;8.25;;;7.45;;
33862;SDS011;20158;51.436;-2.742;2022-09-21T08:33:33;7.28;;;6.57;;
33862;SDS011;20158;51.436;-2.742;2022-09-21T08:35:59;9.07;;;8.15;;
33862;SDS011;20158;51.436;-2.742;2022-09-21T08:38:26;8.73;;;7.22;;
33862;SDS011;20158;51.436;-2.742;2022-09-21T08:40:57;7.45;;;6.75;;
33862;SDS011;20158;51.436;-2.742;2022-09-21T08:43:35;8.10;;;7.30;;
33862;SDS011;20158;51.436;-2.742;2022-09-21T08:46:06;8.05;;;7.25;;
33862;SDS011;20158;51.436;-2.742;2022-09-21T08:48:38;8.63;;;7.22;;
33862;SDS011;20158;51.436;-2.742;2022-09-21T08:51:11;8.77;;;7.82;;
33862;SDS011;20158;51.436;-2.742;2022-09-21T08:53:42;8.75;;;7.80;;
33862;SDS011;20158;51.436;-2.742;2022-09-21T08:56:13;7.72;;;6.97;;
33862;SDS011;20158;51.436;-2.742;2022-09-21T08:58:40;8.27;;;6.80;;
33862;SDS011;20158;51.436;-2.742;2022-09-21T09:06:27;7.85;;;6.80;;
33862;SDS011;20158;51.436;-2.742;2022-09-21T09:11:59;7.28;;;6.57;;
33862;SDS011;20158;51.436;-2.742;2022-09-21T09:20:19;8.77;;;6.47;;
33862;SDS011;20158;51.436;-2.742;2022-09-21T09:23:04;7.47;;;6.78;;
33862;SDS011;20158;51.436;-2.742;2022-09-21T09:25:36;6.82;;;6.22;;
33862;SDS011;20158;51.436;-2.742;2022-09-21T09:28:23;11.10;;;7.22;;
33862;SDS011;20158;51.436;-2.742;2022-09-21T09:31:11;7.57;;;6.88;;
33862;SDS011;20158;51.436;-2.742;2022-09-21T09:36:34;7.93;;;6.75;;
33862;SDS011;20158;51.436;-2.742;2022-09-21T09:39:09;6.72;;;6.07;;
33862;SDS011;20158;51.436;-2.742;2022-09-21T09:41:46;7.15;;;6.40;;
33862;SDS011;20158;51.436;-2.742;2022-09-21T09:50:16;10.70;;;6.68;;
33862;SDS011;20158;51.436;-2.742;2022-09-21T09:53:36;6.80;;;5.53;;
33862;SDS011;20158;51.436;-2.742;2022-09-21T09:55:56;6.50;;;5.72;;
33862;SDS011;20158;51.436;-2.742;2022-09-21T09:58:27;6.15;;;5.32;;
33862;SDS011;20158;51.436;-2.742;2022-09-21T10:01:01;6.30;;;5.70;;
33862;SDS011;20158;51.436;-2.742;2022-09-21T10:03:27;10.52;;;5.40;;
33862;SDS011;20158;51.436;-2.742;2022-09-21T10:05:53;10.38;;;5.10;;
33862;SDS011;20158;51.436;-2.742;2022-09-21T10:11:10;7.43;;;5.70;;
33862;SDS011;20158;51.436;-2.742;2022-09-21T10:13:41;9.63;;;5.72;;
33862;SDS011;20158;51.436;-2.742;2022-09-21T10:16:20;5.45;;;4.95;;
33862;SDS011;20158;51.436;-2.742;2022-09-21T10:18:51;5.18;;;4.68;;
33862;SDS011;20158;51.436;-2.742;2022-09-21T10:21:36;5.53;;;4.57;;
33862;SDS011;20158;51.436;-2.742;2022-09-21T10:24:05;5.90;;;5.30;;
33862;SDS011;20158;51.436;-2.742;2022-09-21T10:26:55;9.13;;;5.15;;
33862;SDS011;20158;51.436;-2.742;2022-09-21T10:29:29;5.35;;;4.47;;
33862;SDS011;20158;51.436;-2.742;2022-09-21T10:31:59;6.57;;;5.43;;
33862;SDS011;20158;51.436;-2.742;2022-09-21T10:34:30;5.13;;;4.20;;
33862;SDS011;20158;51.436;-2.742;2022-09-21T10:36:58;5.28;;;4.65;;
33862;SDS011;20158;51.436;-2.742;2022-09-21T10:39:28;4.95;;;3.92;;
33862;SDS011;20158;51.436;-2.742;2022-09-21T10:44:34;4.78;;;4.00;;
33862;SDS011;20158;51.436;-2.742;2022-09-21T10:47:15;4.22;;;3.70;;
33862;SDS011;20158;51.436;-2.742;2022-09-21T10:49:49;4.63;;;4.13;;
33862;SDS011;20158;51.436;-2.742;2022-09-21T10:52:29;5.22;;;3.90;;
33862;SDS011;20158;51.436;-2.742;2022-09-21T10:55:00;4.38;;;3.55;;
33862;SDS011;20158;51.436;-2.742;2022-09-21T10:57:27;4.25;;;3.17;;
33862;SDS011;20158;51.436;-2.742;2022-09-21T10:59:54;3.92;;;3.30;;
33862;SDS011;20158;51.436;-2.742;2022-09-21T11:08:02;3.40;;;3.10;;
33862;SDS011;20158;51.436;-2.742;2022-09-21T11:21:54;5.93;;;3.33;;
33862;SDS011;20158;51.436;-2.742;2022-09-21T11:27:16;3.78;;;3.38;;
33862;SDS011;20158;51.436;-2.742;2022-09-21T11:38:25;4.82;;;3.28;;
33862;SDS011;20158;51.436;-2.742;2022-09-21T11:54:36;3.60;;;2.97;;
33862;SDS011;20158;51.436;-2.742;2022-09-21T11:57:32;3.47;;;2.38;;
33862;SDS011;20158;51.436;-2.742;2022-09-21T12:00:22;4.43;;;2.92;;
33862;SDS011;20158;51.436;-2.742;2022-09-21T12:06:01;2.67;;;2.47;;
33862;SDS011;20158;51.436;-2.742;2022-09-21T12:08:39;2.60;;;2.40;;
33862;SDS011;20158;51.436;-2.742;2022-09-21T12:11:14;2.20;;;2.00;;
33862;SDS011;20158;51.436;-2.742;2022-09-21T12:14:12;2.35;;;2.08;;
33862;SDS011;20158;51.436;-2.742;2022-09-21T12:19:44;2.58;;;2.05;;
33862;SDS011;20158;51.436;-2.742;2022-09-21T12:22:25;2.28;;;2.08;;
33862;SDS011;20158;51.436;-2.742;2022-09-21T12:24:58;2.10;;;1.90;;
33862;SDS011;20158;51.436;-2.742;2022-09-21T12:30:22;2.00;;;1.80;;
33862;SDS011;20158;51.436;-2.742;2022-09-21T12:35:38;1.98;;;1.42;;
33862;SDS011;20158;51.436;-2.742;2022-09-21T12:43:53;2.45;;;1.92;;
33862;SDS011;20158;51.436;-2.742;2022-09-21T12:47:04;2.22;;;1.58;;
33862;SDS011;20158;51.436;-2.742;2022-09-21T12:49:42;2.88;;;1.60;;
33862;SDS011;20158;51.436;-2.742;2022-09-21T12:52:19;2.13;;;1.92;;
33862;SDS011;20158;51.436;-2.742;2022-09-21T12:57:52;1.85;;;1.67;;
33862;SDS011;20158;51.436;-2.742;2022-09-21T13:00:30;2.28;;;1.98;;
33862;SDS011;20158;51.436;-2.742;2022-09-21T13:03:10;2.97;;;1.98;;
33862;SDS011;20158;51.436;-2.742;2022-09-21T13:08:46;1.77;;;1.67;;
33862;SDS011;20158;51.436;-2.742;2022-09-21T13:11:13;1.80;;;1.70;;
33862;SDS011;20158;51.436;-2.742;2022-09-21T13:13:46;2.57;;;2.33;;
33862;SDS011;20158;51.436;-2.742;2022-09-21T13:16:34;1.98;;;1.60;;
33862;SDS011;20158;51.436;-2.742;2022-09-21T13:21:44;2.47;;;1.55;;
33862;SDS011;20158;51.436;-2.742;2022-09-21T13:24:24;1.73;;;1.63;;
33862;SDS011;20158;51.436;-2.742;2022-09-21T13:26:55;2.00;;;1.38;;
33862;SDS011;20158;51.436;-2.742;2022-09-21T13:29:32;1.50;;;1.40;;
33862;SDS011;20158;51.436;-2.742;2022-09-21T13:34:38;2.95;;;2.00;;
33862;SDS011;20158;51.436;-2.742;2022-09-21T13:39:50;1.60;;;1.42;;
33862;SDS011;20158;51.436;-2.742;2022-09-21T13:44:56;1.67;;;1.58;;
33862;SDS011;20158;51.436;-2.742;2022-09-21T13:47:32;2.60;;;1.58;;
33862;SDS011;20158;51.436;-2.742;2022-09-21T13:52:53;1.50;;;1.30;;
33862;SDS011;20158;51.436;-2.742;2022-09-21T13:55:25;2.13;;;1.38;;
33862;SDS011;20158;51.436;-2.742;2022-09-21T13:57:55;1.65;;;1.25;;
33862;SDS011;20158;51.436;-2.742;2022-09-21T14:00:31;1.40;;;1.30;;
33862;SDS011;20158;51.436;-2.742;2022-09-21T14:03:16;1.60;;;1.50;;
33862;SDS011;20158;51.436;-2.742;2022-09-21T14:06:15;1.85;;;1.70;;
33862;SDS011;20158;51.436;-2.742;2022-09-21T14:11:28;1.65;;;1.50;;
33862;SDS011;20158;51.436;-2.742;2022-09-21T14:16:54;3.78;;;1.80;;
33862;SDS011;20158;51.436;-2.742;2022-09-21T14:24:44;2.60;;;1.60;;
33862;SDS011;20158;51.436;-2.742;2022-09-21T14:29:42;1.90;;;1.45;;
33862;SDS011;20158;51.436;-2.742;2022-09-21T14:32:25;1.85;;;1.52;;
33862;SDS011;20158;51.436;-2.742;2022-09-21T14:35:04;2.10;;;1.20;;
33862;SDS011;20158;51.436;-2.742;2022-09-21T14:37:43;2.72;;;2.22;;
33862;SDS011;20158;51.436;-2.742;2022-09-21T14:42:45;2.75;;;1.58;;
33862;SDS011;20158;51.436;-2.742;2022-09-21T14:45:15;2.13;;;1.65;;
33862;SDS011;20158;51.436;-2.742;2022-09-21T14:50:31;2.00;;;1.55;;
33862;SDS011;20158;51.436;-2.742;2022-09-21T14:53:22;1.63;;;1.20;;
33862;SDS011;20158;51.436;-2.742;2022-09-21T14:56:18;1.50;;;1.30;;
33862;SDS011;20158;51.436;-2.742;2022-09-21T15:02:13;1.55;;;1.45;;
33862;SDS011;20158;51.436;-2.742;2022-09-21T15:07:44;2.92;;;1.38;;
33862;SDS011;20158;51.436;-2.742;2022-09-21T15:13:49;2.05;;;1.67;;
33862;SDS011;20158;51.436;-2.742;2022-09-21T15:21:44;1.77;;;1.67;;
33862;SDS011;20158;51.436;-2.742;2022-09-21T15:24:16;2.08;;;1.52;;
33862;SDS011;20158;51.436;-2.742;2022-09-21T15:26:51;2.20;;;1.83;;
33862;SDS011;20158;51.436;-2.742;2022-09-21T15:29:25;1.70;;;1.10;;
33862;SDS011;20158;51.436;-2.742;2022-09-21T15:31:53;3.35;;;1.40;;
33862;SDS011;20158;51.436;-2.742;2022-09-21T15:34:20;1.30;;;1.10;;
33862;SDS011;20158;51.436;-2.742;2022-09-21T15:36:47;1.90;;;1.33;;
33862;SDS011;20158;51.436;-2.742;2022-09-21T15:39:22;1.65;;;1.50;;
33862;SDS011;20158;51.436;-2.742;2022-09-21T15:42:11;1.75;;;1.55;;
33862;SDS011;20158;51.436;-2.742;2022-09-21T15:44:42;1.52;;;1.42;;
33862;SDS011;20158;51.436;-2.742;2022-09-21T15:47:13;2.45;;;1.50;;
33862;SDS011;20158;51.436;-2.742;2022-09-21T15:49:45;2.50;;;1.60;;
33862;SDS011;20158;51.436;-2.742;2022-09-21T15:52:32;1.40;;;1.30;;
33862;SDS011;20158;51.436;-2.742;2022-09-21T15:55:08;1.65;;;1.10;;
33862;SDS011;20158;51.436;-2.742;2022-09-21T15:57:46;1.58;;;1.48;;
33862;SDS011;20158;51.436;-2.742;2022-09-21T16:02:42;1.60;;;1.50;;
33862;SDS011;20158;51.436;-2.742;2022-09-21T16:05:47;1.40;;;1.30;;
33862;SDS011;20158;51.436;-2.742;2022-09-21T16:10:47;2.80;;;1.25;;
33862;SDS011;20158;51.436;-2.742;2022-09-21T16:13:18;3.22;;;1.67;;
33862;SDS011;20158;51.436;-2.742;2022-09-21T16:16:10;2.20;;;1.20;;
33862;SDS011;20158;51.436;-2.742;2022-09-21T16:21:29;1.50;;;1.40;;
33862;SDS011;20158;51.436;-2.742;2022-09-21T16:24:06;1.83;;;1.30;;
33862;SDS011;20158;51.436;-2.742;2022-09-21T16:26:37;1.30;;;1.20;;
33862;SDS011;20158;51.436;-2.742;2022-09-21T16:31:34;1.48;;;1.20;;
33862;SDS011;20158;51.436;-2.742;2022-09-21T16:34:02;1.38;;;1.27;;
33862;SDS011;20158;51.436;-2.742;2022-09-21T16:36:35;1.35;;;1.25;;
33862;SDS011;20158;51.436;-2.742;2022-09-21T16:39:04;3.38;;;1.52;;
33862;SDS011;20158;51.436;-2.742;2022-09-21T16:41:37;4.47;;;1.80;;
33862;SDS011;20158;51.436;-2.742;2022-09-21T16:44:10;1.42;;;1.20;;
33862;SDS011;20158;51.436;-2.742;2022-09-21T16:46:40;1.52;;;1.30;;
33862;SDS011;20158;51.436;-2.742;2022-09-21T16:49:10;2.10;;;1.10;;
33862;SDS011;20158;51.436;-2.742;2022-09-21T16:51:45;2.03;;;1.83;;
33862;SDS011;20158;51.436;-2.742;2022-09-21T16:54:11;1.67;;;1.58;;
33862;SDS011;20158;51.436;-2.742;2022-09-21T16:56:38;3.65;;;1.65;;
33862;SDS011;20158;51.436;-2.742;2022-09-21T16:59:10;1.27;;;1.13;;
33862;SDS011;20158;51.436;-2.742;2022-09-21T17:01:39;1.80;;;1.70;;
33862;SDS011;20158;51.436;-2.742;2022-09-21T17:04:05;1.70;;;1.58;;
33862;SDS011;20158;51.436;-2.742;2022-09-21T17:06:31;1.77;;;1.50;;
33862;SDS011;20158;51.436;-2.742;2022-09-21T17:08:57;1.48;;;1.38;;
33862;SDS011;20158;51.436;-2.742;2022-09-21T17:11:24;1.90;;;1.40;;
33862;SDS011;20158;51.436;-2.742;2022-09-21T17:13:51;1.92;;;1.30;;
33862;SDS011;20158;51.436;-2.742;2022-09-21T17:16:18;2.60;;;1.98;;
33862;SDS011;20158;51.436;-2.742;2022-09-21T17:18:49;1.70;;;1.30;;
33862;SDS011;20158;51.436;-2.742;2022-09-21T17:21:19;1.77;;;1.67;;
33862;SDS011;20158;51.436;-2.742;2022-09-21T17:23:45;2.08;;;1.50;;
33862;SDS011;20158;51.436;-2.742;2022-09-21T17:26:12;2.22;;;2.00;;
33862;SDS011;20158;51.436;-2.742;2022-09-21T17:28:43;2.40;;;1.57;;
33862;SDS011;20158;51.436;-2.742;2022-09-21T17:31:10;1.95;;;1.73;;
33862;SDS011;20158;51.436;-2.742;2022-09-21T17:33:38;2.22;;;1.92;;
33862;SDS011;20158;51.436;-2.742;2022-09-21T17:36:05;1.90;;;1.67;;
33862;SDS011;20158;51.436;-2.742;2022-09-21T17:38:33;2.63;;;2.42;;
33862;SDS011;20158;51.436;-2.742;2022-09-21T17:41:05;5.40;;;2.63;;
33862;SDS011;20158;51.436;-2.742;2022-09-21T17:46:39;3.58;;;1.88;;
33862;SDS011;20158;51.436;-2.742;2022-09-21T17:49:07;4.40;;;2.05;;
33862;SDS011;20158;51.436;-2.742;2022-09-21T17:51:36;2.25;;;1.80;;
33862;SDS011;20158;51.436;-2.742;2022-09-21T17:54:20;2.10;;;1.67;;
33862;SDS011;20158;51.436;-2.742;2022-09-21T17:56:50;1.88;;;1.60;;
33862;SDS011;20158;51.436;-2.742;2022-09-21T18:01:57;2.00;;;1.65;;
33862;SDS011;20158;51.436;-2.742;2022-09-21T18:04:25;2.50;;;1.63;;
33862;SDS011;20158;51.436;-2.742;2022-09-21T18:06:53;2.47;;;1.80;;
33862;SDS011;20158;51.436;-2.742;2022-09-21T18:09:19;3.25;;;1.50;;
33862;SDS011;20158;51.436;-2.742;2022-09-21T18:11:50;2.60;;;1.88;;
33862;SDS011;20158;51.436;-2.742;2022-09-21T18:25:54;1.50;;;1.33;;
33862;SDS011;20158;51.436;-2.742;2022-09-21T18:34:14;2.25;;;1.60;;
33862;SDS011;20158;51.436;-2.742;2022-09-21T18:39:50;2.03;;;1.48;;
33862;SDS011;20158;51.436;-2.742;2022-09-21T18:53:36;2.15;;;1.80;;
33862;SDS011;20158;51.436;-2.742;2022-09-21T18:56:21;2.15;;;1.95;;
33862;SDS011;20158;51.436;-2.742;2022-09-21T19:01:21;1.75;;;1.65;;